createdAt,value
2023-10-22T00:00:27.734Z,20.38
2023-10-22T00:05:29.203Z,20.33
2023-10-22T00:10:30.704Z,20.15
2023-10-22T00:15:32.145Z,20.80
2023-10-22T00:20:34.308Z,20.48
2023-10-22T00:25:37.064Z,20.33
2023-10-22T00:30:38.515Z,20.38
2023-10-22T00:35:39.982Z,19.70
2023-10-22T00:40:41.670Z,20.13
2023-10-22T00:45:43.672Z,18.98
2023-10-22T00:50:45.418Z,20.02
2023-10-22T00:55:47.831Z,19.10
2023-10-22T01:00:49.393Z,18.38
2023-10-22T01:05:50.933Z,18.85
2023-10-22T01:10:53.050Z,18.42
2023-10-22T01:15:54.547Z,19.05
2023-10-22T01:20:56.072Z,20.10
2023-10-22T01:25:57.532Z,20.08
2023-10-22T01:30:59.101Z,20.17
2023-10-22T01:36:00.981Z,19.50
2023-10-22T01:41:09.806Z,20.10
2023-10-22T01:46:11.358Z,20.02
2023-10-22T01:51:12.919Z,20.45
2023-10-22T01:56:14.523Z,19.30
2023-10-22T02:01:16.064Z,20.67
2023-10-22T02:06:17.664Z,20.30
2023-10-22T02:11:20.097Z,20.52
2023-10-22T02:16:21.646Z,21.45
2023-10-22T02:21:27.295Z,23.42
2023-10-22T02:26:28.752Z,22.88
2023-10-22T02:31:30.512Z,24.08
2023-10-22T02:36:32.392Z,23.35
2023-10-22T02:41:33.830Z,23.33
2023-10-22T02:46:35.370Z,21.83
2023-10-22T02:51:36.830Z,21.75
2023-10-22T02:56:40.413Z,22.05
2023-10-22T03:01:42.074Z,21.77
2023-10-22T03:06:43.591Z,21.98
2023-10-22T03:11:45.047Z,21.60
2023-10-22T03:16:47.170Z,23.42
2023-10-22T03:21:48.637Z,23.70
2023-10-22T03:26:50.385Z,23.73
2023-10-22T03:31:51.889Z,22.38
2023-10-22T03:36:53.366Z,22.60
2023-10-22T03:41:54.976Z,22.02
2023-10-22T03:46:56.600Z,20.58
2023-10-22T03:51:58.169Z,22.38
2023-10-22T03:57:00.066Z,22.00
2023-10-22T04:02:02.177Z,27.73
2023-10-22T04:07:04.296Z,26.17
2023-10-22T04:12:06.099Z,24.25
2023-10-22T04:17:07.816Z,23.73
2023-10-22T04:22:09.319Z,22.67
2023-10-22T04:27:12.686Z,22.15
2023-10-22T04:32:14.539Z,22.33
2023-10-22T04:37:18.292Z,21.90
2023-10-22T04:42:19.769Z,21.92
2023-10-22T04:47:22.170Z,23.08
2023-10-22T04:52:33.112Z,20.95
2023-10-22T04:57:35.912Z,21.38
2023-10-22T05:02:38.006Z,22.27
2023-10-22T05:07:39.504Z,21.80
2023-10-22T05:12:40.971Z,20.45
2023-10-22T05:17:42.619Z,22.08
2023-10-22T05:22:45.556Z,21.50
2023-10-22T05:27:47.586Z,20.48
2023-10-22T05:32:49.109Z,19.65
2023-10-22T05:37:52.455Z,19.48
2023-10-22T05:42:53.907Z,20.92
2023-10-22T05:47:55.475Z,23.05
2023-10-22T05:52:57.302Z,21.27
2023-10-22T05:57:58.817Z,19.83
2023-10-22T06:03:01.430Z,20.15
2023-10-22T06:08:03.003Z,22.15
2023-10-22T06:13:04.441Z,22.30
2023-10-22T06:18:07.238Z,25.23
2023-10-22T06:23:09.467Z,25.40
2023-10-22T06:28:11.335Z,23.20
2023-10-22T06:33:12.953Z,22.58
2023-10-22T06:38:14.491Z,24.38
2023-10-22T06:43:15.999Z,24.73
2023-10-22T06:48:17.561Z,25.50
2023-10-22T06:53:19.088Z,26.55
2023-10-22T06:58:20.553Z,26.63
2023-10-22T07:03:22.159Z,25.58
2023-10-22T07:08:23.649Z,25.48
2023-10-22T07:13:25.671Z,20.70
2023-10-22T07:18:27.249Z,17.90
2023-10-22T07:23:32.631Z,18.63
2023-10-22T07:28:34.462Z,16.13
2023-10-22T07:33:35.991Z,16.33
2023-10-22T07:38:39.335Z,15.40
2023-10-22T07:43:41.952Z,14.90
2023-10-22T07:48:43.878Z,16.45
2023-10-22T07:53:47.556Z,18.65
2023-10-22T07:58:49.271Z,24.45
2023-10-22T08:03:51.924Z,19.88
2023-10-22T08:08:55.949Z,21.38
2023-10-22T08:13:57.560Z,25.17
2023-10-22T08:18:59.073Z,23.13
2023-10-22T08:24:00.884Z,22.10
2023-10-22T08:29:02.929Z,21.23
2023-10-22T08:34:04.750Z,20.15
2023-10-22T08:39:09.958Z,19.70
2023-10-22T08:44:15.033Z,18.92
2023-10-22T08:49:20.310Z,18.35
2023-10-22T08:54:23.738Z,18.92
2023-10-22T08:59:25.398Z,16.83
2023-10-22T09:04:27.008Z,12.85
2023-10-22T09:09:39.782Z,10.18
2023-10-22T09:14:45.061Z,7.53
2023-10-22T09:19:48.484Z,7.20
2023-10-22T09:24:51.930Z,5.53
2023-10-22T09:29:54.477Z,4.15
2023-10-22T09:34:56.056Z,3.50
2023-10-22T09:39:57.501Z,3.55
2023-10-22T09:44:58.945Z,3.20
2023-10-22T09:50:06.749Z,2.53
2023-10-22T09:55:13.611Z,2.20
2023-10-22T10:00:16.287Z,2.00
2023-10-22T10:05:20.357Z,1.90
2023-10-22T10:10:22.354Z,1.77
2023-10-22T10:15:42.118Z,1.77
2023-10-22T10:20:44.254Z,1.70
2023-10-22T10:25:46.065Z,1.40
2023-10-22T10:30:47.788Z,1.70
2023-10-22T10:35:50.907Z,1.90
2023-10-22T10:40:55.133Z,1.40
2023-10-22T10:46:24.663Z,1.40
2023-10-22T10:51:26.603Z,1.65
2023-10-22T10:56:57.196Z,2.00
2023-10-22T11:02:02.916Z,1.58
2023-10-22T11:07:22.401Z,1.50
2023-10-22T11:12:27.367Z,1.50
2023-10-22T11:17:29.163Z,1.38
2023-10-22T11:22:30.844Z,1.30
2023-10-22T11:27:33.249Z,1.00
2023-10-22T11:32:38.477Z,1.02
2023-10-22T11:37:43.817Z,1.20
2023-10-22T11:42:45.364Z,1.08
2023-10-22T11:47:46.938Z,1.50
2023-10-22T11:52:55.627Z,1.70
2023-10-22T11:57:57.470Z,1.70
2023-10-22T12:02:59.032Z,1.30
2023-10-22T12:08:00.714Z,1.23
2023-10-22T12:13:02.883Z,1.40
2023-10-22T12:18:06.540Z,1.20
2023-10-22T12:23:12.236Z,1.30
2023-10-22T12:28:14.049Z,1.55
2023-10-22T12:33:15.681Z,2.10
2023-10-22T12:38:17.207Z,1.95
2023-10-22T12:43:18.688Z,1.85
2023-10-22T12:48:20.336Z,1.80
2023-10-22T12:53:21.865Z,1.90
2023-10-22T12:58:24.497Z,1.98
2023-10-22T13:03:26.138Z,3.90
2023-10-22T13:08:27.806Z,1.88
2023-10-22T13:13:29.332Z,1.98
2023-10-22T13:18:30.823Z,1.95
2023-10-22T13:23:32.365Z,2.00
2023-10-22T13:28:33.905Z,2.45
2023-10-22T13:33:35.420Z,2.70
2023-10-22T13:38:37.031Z,2.20
2023-10-22T13:43:40.233Z,2.20
2023-10-22T13:48:41.866Z,2.58
2023-10-22T13:53:43.453Z,2.50
2023-10-22T13:58:44.944Z,1.75
2023-10-22T14:03:46.549Z,1.50
2023-10-22T14:08:48.070Z,1.70
2023-10-22T14:13:53.278Z,1.77
2023-10-22T14:18:54.954Z,2.33
2023-10-22T14:23:56.609Z,2.13
2023-10-22T14:28:58.122Z,2.17
2023-10-22T14:33:59.671Z,1.75
2023-10-22T14:39:01.293Z,2.10
2023-10-22T14:44:02.820Z,1.77
2023-10-22T14:49:04.332Z,2.08
2023-10-22T14:54:06.034Z,2.20
2023-10-22T14:59:09.865Z,1.70
2023-10-22T15:04:11.661Z,1.92
2023-10-22T15:09:13.321Z,1.90
2023-10-22T15:14:15.449Z,1.95
2023-10-22T15:19:17.112Z,1.90
2023-10-22T15:24:18.587Z,2.50
2023-10-22T15:29:20.672Z,2.17
2023-10-22T15:34:22.147Z,2.90
2023-10-22T15:39:23.844Z,2.85
2023-10-22T15:44:25.332Z,2.60
2023-10-22T15:49:26.837Z,2.58
2023-10-22T15:54:28.307Z,3.65
2023-10-22T15:59:29.820Z,3.70
2023-10-22T16:04:31.269Z,3.22
2023-10-22T16:09:33.554Z,2.50
2023-10-22T16:14:36.250Z,2.58
2023-10-22T16:19:38.333Z,2.72
2023-10-22T16:24:40.163Z,3.90
2023-10-22T16:29:41.740Z,3.05
2023-10-22T16:34:43.713Z,3.30
2023-10-22T16:39:45.330Z,3.47
2023-10-22T16:44:50.897Z,3.60
2023-10-22T16:49:54.664Z,4.32
2023-10-22T16:54:56.542Z,3.85
2023-10-22T16:59:58.064Z,3.72
2023-10-22T17:04:59.546Z,4.40
2023-10-22T17:10:01.213Z,4.25
2023-10-22T17:15:02.819Z,4.53
2023-10-22T17:20:05.232Z,5.20
2023-10-22T17:25:07.442Z,5.72
2023-10-22T17:30:09.420Z,7.53
2023-10-22T17:35:10.958Z,8.63
2023-10-22T17:40:12.931Z,8.73
2023-10-22T17:45:14.924Z,9.10
2023-10-22T17:50:16.622Z,9.65
2023-10-22T17:55:18.085Z,9.75
2023-10-22T18:00:23.535Z,14.38
2023-10-22T18:05:25.172Z,20.92
2023-10-22T18:10:26.696Z,21.88
2023-10-22T18:15:28.199Z,19.02
2023-10-22T18:20:33.497Z,17.75
2023-10-22T18:25:35.511Z,17.63
2023-10-22T18:30:40.635Z,17.15
2023-10-22T18:35:45.028Z,18.60
2023-10-22T18:40:51.129Z,18.77
2023-10-22T18:45:52.958Z,17.65
2023-10-22T18:50:59.315Z,19.42
2023-10-22T18:56:05.589Z,19.33
2023-10-22T19:01:24.997Z,22.38
2023-10-22T19:06:28.926Z,27.90
2023-10-22T19:11:30.725Z,23.95
2023-10-22T19:16:34.527Z,22.40
2023-10-22T19:21:36.080Z,21.15
2023-10-22T19:26:37.586Z,21.38
2023-10-22T19:31:39.239Z,21.77
2023-10-22T19:36:40.853Z,21.75
2023-10-22T19:41:42.366Z,20.42
2023-10-22T19:46:43.902Z,20.45
2023-10-22T19:51:45.693Z,19.65
2023-10-22T19:56:47.183Z,19.45
2023-10-22T20:01:48.931Z,21.48
2023-10-22T20:06:51.907Z,20.52
2023-10-22T20:11:53.578Z,21.10
2023-10-22T20:16:55.388Z,21.40
2023-10-22T20:21:56.834Z,28.35
2023-10-22T20:26:58.333Z,29.00
2023-10-22T20:31:59.901Z,26.08
2023-10-22T20:37:04.575Z,22.98
2023-10-22T20:42:06.166Z,21.60
2023-10-22T20:47:07.738Z,22.17
2023-10-22T20:52:09.248Z,21.23
2023-10-22T20:57:10.752Z,19.70
2023-10-22T21:02:12.273Z,19.23
2023-10-22T21:07:13.760Z,18.35
2023-10-22T21:12:15.235Z,17.35
2023-10-22T21:17:16.699Z,18.52
2023-10-22T21:22:18.197Z,17.90
2023-10-22T21:27:19.691Z,17.25
2023-10-22T21:32:21.330Z,17.90
2023-10-22T21:37:22.785Z,18.13
2023-10-22T21:42:24.346Z,17.48
2023-10-22T21:47:27.867Z,17.13
2023-10-22T21:52:29.382Z,16.63
2023-10-22T21:57:31.062Z,16.80
2023-10-22T22:02:32.638Z,18.00
2023-10-22T22:07:34.146Z,16.98
2023-10-22T22:12:36.173Z,16.70
2023-10-22T22:17:37.763Z,16.23
2023-10-22T22:22:39.592Z,15.10
2023-10-22T22:27:41.093Z,15.40
2023-10-22T22:32:42.623Z,16.13
2023-10-22T22:37:44.147Z,15.80
2023-10-22T22:42:45.674Z,14.35
2023-10-22T22:47:47.306Z,13.38
2023-10-22T22:52:48.821Z,12.02
2023-10-22T22:57:50.324Z,11.70
2023-10-22T23:02:51.831Z,11.18
2023-10-22T23:07:53.566Z,10.45
2023-10-22T23:12:55.017Z,11.20
2023-10-22T23:17:56.569Z,10.25
2023-10-22T23:22:58.044Z,10.40
2023-10-22T23:27:59.813Z,10.18
2023-10-22T23:33:01.465Z,11.65
2023-10-22T23:38:03.030Z,10.65
2023-10-22T23:43:04.483Z,10.75
2023-10-22T23:48:06.269Z,10.95
2023-10-22T23:53:07.730Z,10.70
2023-10-22T23:58:09.189Z,9.95
